createdAt,value
2019-06-07T00:01:20.748Z,26.40
2019-06-07T00:03:49.658Z,26.40
2019-06-07T00:06:25.035Z,26.40
2019-06-07T00:08:52.525Z,26.40
2019-06-07T00:11:25.592Z,26.30
2019-06-07T00:13:56.262Z,26.30
2019-06-07T00:16:26.763Z,26.30
2019-06-07T00:18:57.433Z,26.30
2019-06-07T00:22:12.754Z,26.20
2019-06-07T00:24:00.264Z,26.20
2019-06-07T00:26:30.801Z,26.20
2019-06-07T00:29:03.405Z,26.20
2019-06-07T00:31:34.088Z,26.10
2019-06-07T00:34:04.696Z,26.10
2019-06-07T00:36:36.294Z,26.10
2019-06-07T00:39:10.552Z,26.10
2019-06-07T00:41:41.397Z,26.10
2019-06-07T00:44:12.496Z,26.00
2019-06-07T00:46:43.118Z,26.00
2019-06-07T00:49:29.036Z,26.00
2019-06-07T00:51:50.729Z,26.00
2019-06-07T00:54:21.487Z,25.90
2019-06-07T00:56:50.481Z,25.90
2019-06-07T00:59:28.293Z,25.90
2019-06-07T01:01:53.388Z,25.90
2019-06-07T01:04:26.991Z,25.90
2019-06-07T01:06:57.669Z,25.80
2019-06-07T01:09:28.203Z,25.80
2019-06-07T01:11:58.790Z,25.80
2019-06-07T01:14:29.493Z,25.80
2019-06-07T01:17:22.177Z,25.80
2019-06-07T01:19:32.388Z,25.80
2019-06-07T01:22:02.949Z,25.80
2019-06-07T01:24:33.584Z,25.80
2019-06-07T01:27:05.331Z,25.80
2019-06-07T01:29:35.860Z,25.70
2019-06-07T01:32:06.384Z,25.70
2019-06-07T01:34:36.917Z,25.70
2019-06-07T01:37:07.506Z,25.70
2019-06-07T01:39:38.073Z,25.70
2019-06-07T01:42:08.601Z,25.70
2019-06-07T01:44:40.640Z,25.60
2019-06-07T01:47:12.646Z,25.60
2019-06-07T01:49:43.176Z,25.60
2019-06-07T01:52:13.767Z,25.60
2019-06-07T01:54:57.972Z,25.50
2019-06-07T01:57:36.710Z,25.50
2019-06-07T01:59:49.443Z,25.50
2019-06-07T02:02:20.200Z,25.50
2019-06-07T02:04:50.791Z,25.50
2019-06-07T02:07:25.808Z,25.40
2019-06-07T02:09:53.635Z,25.40
2019-06-07T02:12:31.697Z,25.40
2019-06-07T02:14:56.410Z,25.40
2019-06-07T02:17:30.148Z,25.40
2019-06-07T02:20:01.030Z,25.30
2019-06-07T02:22:32.624Z,25.30
2019-06-07T02:25:35.311Z,25.30
2019-06-07T02:27:36.822Z,25.20
2019-06-07T02:30:36.770Z,25.20
2019-06-07T02:32:40.725Z,25.20
2019-06-07T02:35:11.332Z,25.20
2019-06-07T02:37:41.875Z,25.10
2019-06-07T02:40:14.397Z,25.10
2019-06-07T02:42:45.172Z,25.10
2019-06-07T02:45:18.581Z,25.10
2019-06-07T02:47:49.128Z,25.00
2019-06-07T02:50:20.332Z,25.00
2019-06-07T02:52:50.873Z,25.00
2019-06-07T02:55:24.890Z,25.00
2019-06-07T02:57:54.782Z,24.90
2019-06-07T03:01:06.066Z,24.90
2019-06-07T03:03:19.511Z,24.90
2019-06-07T03:05:50.086Z,24.90
2019-06-07T03:08:22.427Z,24.90
2019-06-07T03:10:53.078Z,24.80
2019-06-07T03:13:28.477Z,24.80
2019-06-07T03:15:58.534Z,24.80
2019-06-07T03:18:46.613Z,24.80
2019-06-07T03:21:22.410Z,24.70
2019-06-07T03:23:56.723Z,24.70
2019-06-07T03:26:30.429Z,24.70
2019-06-07T03:29:01.873Z,24.70
2019-06-07T03:31:41.500Z,24.70
2019-06-07T03:34:06.205Z,24.70
2019-06-07T03:36:39.183Z,24.80
2019-06-07T03:39:09.415Z,24.80
2019-06-07T03:41:49.863Z,24.90
2019-06-07T03:44:12.275Z,24.90
2019-06-07T03:46:42.855Z,25.00
2019-06-07T03:49:13.397Z,25.10
2019-06-07T03:51:43.917Z,25.20
2019-06-07T03:54:14.426Z,25.30
2019-06-07T03:56:45.379Z,25.40
2019-06-07T03:59:16.036Z,25.40
2019-06-07T04:01:46.649Z,25.50
2019-06-07T04:04:17.345Z,25.60
2019-06-07T04:06:47.879Z,25.70
2019-06-07T04:09:18.422Z,25.70
2019-06-07T04:11:48.976Z,25.80
2019-06-07T04:14:19.557Z,25.90
2019-06-07T04:16:50.154Z,25.90
2019-06-07T04:19:20.773Z,26.00
2019-06-07T04:21:51.329Z,26.00
2019-06-07T04:24:21.866Z,26.10
2019-06-07T04:26:53.642Z,26.10
2019-06-07T04:29:33.103Z,26.10
2019-06-07T04:31:58.391Z,26.20
2019-06-07T04:34:29.919Z,26.30
2019-06-07T04:37:02.985Z,26.40
2019-06-07T04:39:38.301Z,26.40
2019-06-07T04:42:07.796Z,26.40
2019-06-07T04:44:42.609Z,26.40
2019-06-07T04:47:15.094Z,26.30
2019-06-07T04:49:48.759Z,26.20
2019-06-07T04:52:19.391Z,26.20
2019-06-07T04:54:50.007Z,26.20
2019-06-07T04:57:20.528Z,26.20
2019-06-07T05:00:12.030Z,26.20
2019-06-07T05:02:23.596Z,26.20
2019-06-07T05:04:54.150Z,26.20
2019-06-07T05:07:24.778Z,26.20
2019-06-07T05:09:55.355Z,26.20
2019-06-07T05:12:25.868Z,26.20
2019-06-07T05:14:56.413Z,26.20
2019-06-07T05:17:26.989Z,26.20
2019-06-07T05:19:57.498Z,26.20
2019-06-07T05:22:28.101Z,26.10
2019-06-07T05:24:58.688Z,26.10
2019-06-07T05:27:33.594Z,26.20
2019-06-07T05:30:24.308Z,26.20
2019-06-07T05:32:36.804Z,26.20
2019-06-07T05:35:08.115Z,26.20
2019-06-07T05:37:41.806Z,26.20
2019-06-07T05:40:14.180Z,26.20
2019-06-07T05:42:46.648Z,26.10
2019-06-07T05:45:22.256Z,26.10
2019-06-07T05:47:52.997Z,26.10
2019-06-07T05:50:39.304Z,26.10
2019-06-07T05:52:57.375Z,26.10
2019-06-07T05:55:27.936Z,26.10
2019-06-07T05:57:59.770Z,26.10
2019-06-07T06:00:30.323Z,26.10
2019-06-07T06:03:05.749Z,26.10
2019-06-07T06:05:41.641Z,26.10
2019-06-07T06:08:06.840Z,26.10
2019-06-07T06:10:40.545Z,26.10
2019-06-07T06:13:12.657Z,26.10
2019-06-07T06:15:56.339Z,26.10
2019-06-07T06:18:15.850Z,26.10
2019-06-07T06:21:12.193Z,26.10
2019-06-07T06:23:19.037Z,26.10
2019-06-07T06:25:55.875Z,26.10
2019-06-07T06:28:22.151Z,26.10
2019-06-07T06:30:52.759Z,26.10
2019-06-07T06:33:33.664Z,26.20
2019-06-07T06:35:55.714Z,26.20
2019-06-07T06:38:26.287Z,26.20
2019-06-07T06:41:14.441Z,26.20
2019-06-07T06:43:29.243Z,26.20
2019-06-07T06:45:59.883Z,26.20
2019-06-07T06:48:30.453Z,26.30
2019-06-07T06:51:01.006Z,26.30
2019-06-07T06:53:31.613Z,26.40
2019-06-07T06:56:02.138Z,26.40
2019-06-07T06:59:18.524Z,26.50
2019-06-07T07:01:06.916Z,26.50
2019-06-07T07:06:25.347Z,26.50
2019-06-07T07:08:47.458Z,26.60
2019-06-07T07:11:16.923Z,26.60
2019-06-07T07:13:49.890Z,26.70
2019-06-07T07:16:20.062Z,26.70
2019-06-07T07:18:52.866Z,26.80
2019-06-07T07:21:22.974Z,26.90
2019-06-07T07:24:19.247Z,27.00
2019-06-07T07:26:26.882Z,27.10
2019-06-07T07:28:58.036Z,27.20
2019-06-07T07:31:28.594Z,27.30
2019-06-07T07:34:29.075Z,27.30
2019-06-07T07:36:39.468Z,27.40
2019-06-07T07:39:06.055Z,27.50
2019-06-07T07:41:36.919Z,27.50
2019-06-07T07:44:09.665Z,27.60
2019-06-07T07:46:40.119Z,27.60
2019-06-07T07:49:10.656Z,27.70
2019-06-07T07:51:41.176Z,27.70
2019-06-07T07:54:11.768Z,27.70
2019-06-07T07:56:42.251Z,27.70
2019-06-07T07:59:12.869Z,27.70
2019-06-07T08:02:02.574Z,27.60
2019-06-07T08:05:12.878Z,27.60
2019-06-07T08:07:05.539Z,27.50
2019-06-07T08:09:36.128Z,27.50
2019-06-07T08:12:06.738Z,27.50
2019-06-07T08:14:37.319Z,27.40
2019-06-07T08:17:07.846Z,27.40
2019-06-07T08:19:38.416Z,27.40
2019-06-07T08:22:08.931Z,27.40
2019-06-07T08:24:41.320Z,27.30
2019-06-07T08:27:26.049Z,27.30
2019-06-07T08:29:54.092Z,27.30
2019-06-07T08:32:16.926Z,27.20
2019-06-07T08:34:49.830Z,27.20
2019-06-07T08:37:20.922Z,27.20
2019-06-07T08:39:52.810Z,27.20
2019-06-07T08:42:36.438Z,27.20
2019-06-07T08:45:01.254Z,27.20
2019-06-07T08:47:30.421Z,27.30
2019-06-07T08:50:07.241Z,27.30
2019-06-07T08:52:33.271Z,27.30
2019-06-07T08:55:05.207Z,27.30
2019-06-07T08:57:36.054Z,27.40
2019-06-07T09:00:42.277Z,27.40
2019-06-07T09:02:41.271Z,27.40
2019-06-07T09:05:12.891Z,27.40
2019-06-07T09:07:44.486Z,27.40
2019-06-07T09:10:35.847Z,27.50
2019-06-07T09:13:11.329Z,27.40
2019-06-07T09:15:38.846Z,27.50
2019-06-07T09:18:38.086Z,27.40
2019-06-07T09:20:49.628Z,27.40
2019-06-07T09:23:20.563Z,27.40
2019-06-07T09:26:02.691Z,27.30
2019-06-07T09:28:26.207Z,27.30
2019-06-07T09:30:57.833Z,27.30
2019-06-07T09:33:29.265Z,27.30
2019-06-07T09:36:01.480Z,27.30
2019-06-07T09:38:32.388Z,27.30
2019-06-07T09:41:06.169Z,27.30
2019-06-07T09:46:12.970Z,27.30
2019-06-07T09:51:19.142Z,27.20
2019-06-07T09:53:44.642Z,27.20
2019-06-07T09:56:15.215Z,27.10
2019-06-07T09:58:52.476Z,27.10
2019-06-07T10:01:18.192Z,27.10
2019-06-07T10:03:48.751Z,27.00
2019-06-07T10:06:19.300Z,27.00
2019-06-07T10:11:22.244Z,27.00
2019-06-07T10:13:52.837Z,26.90
2019-06-07T10:16:23.430Z,26.90
2019-06-07T10:18:53.971Z,26.90
2019-06-07T10:21:24.637Z,26.90
2019-06-07T10:23:55.166Z,26.90
2019-06-07T10:26:25.718Z,26.90
2019-06-07T10:28:56.247Z,26.80
2019-06-07T10:31:26.896Z,26.80
2019-06-07T10:33:57.437Z,26.80
2019-06-07T10:36:28.023Z,26.80
2019-06-07T10:39:00.707Z,26.80
2019-06-07T10:41:31.420Z,26.90
2019-06-07T10:44:03.220Z,26.80
2019-06-07T10:46:33.941Z,26.80
2019-06-07T10:49:06.008Z,26.80
2019-06-07T10:51:36.812Z,26.80
2019-06-07T10:54:23.193Z,26.80
2019-06-07T10:56:40.095Z,26.80
2019-06-07T10:59:11.917Z,26.90
2019-06-07T11:01:45.611Z,26.90
2019-06-07T11:04:17.393Z,26.90
2019-06-07T11:06:49.191Z,27.00
2019-06-07T11:09:19.729Z,26.90
2019-06-07T11:11:50.321Z,27.00
2019-06-07T11:14:22.728Z,27.00
2019-06-07T11:16:53.302Z,27.00
2019-06-07T11:19:23.838Z,27.00
2019-06-07T11:21:54.469Z,27.00
2019-06-07T11:24:25.149Z,26.80
2019-06-07T11:26:55.757Z,27.00
2019-06-07T11:29:26.269Z,27.10
2019-06-07T11:31:56.819Z,27.10
2019-06-07T11:34:27.392Z,27.00
2019-06-07T11:36:59.094Z,27.00
2019-06-07T11:39:29.773Z,27.00
2019-06-07T11:42:00.425Z,27.10
2019-06-07T11:44:31.095Z,27.10
2019-06-07T11:47:04.284Z,27.10
2019-06-07T11:49:34.856Z,27.10
2019-06-07T11:52:05.618Z,27.10
2019-06-07T11:54:37.656Z,27.10
2019-06-07T11:57:08.831Z,27.10
2019-06-07T11:59:39.401Z,27.10
2019-06-07T12:02:11.439Z,27.20
2019-06-07T12:04:42.098Z,27.20
2019-06-07T12:07:14.180Z,27.20
2019-06-07T12:09:55.880Z,27.20
2019-06-07T12:12:20.416Z,27.20
2019-06-07T12:14:50.808Z,27.30
2019-06-07T12:17:24.730Z,27.30
2019-06-07T12:19:55.256Z,27.30
2019-06-07T12:22:25.993Z,27.30
2019-06-07T12:24:56.522Z,27.30
2019-06-07T12:27:27.192Z,27.30
2019-06-07T12:29:57.750Z,27.30
2019-06-07T12:32:28.430Z,27.30
2019-06-07T12:34:59.171Z,27.40
2019-06-07T12:37:43.095Z,27.40
2019-06-07T12:40:02.202Z,27.40
2019-06-07T12:42:32.852Z,27.40
2019-06-07T12:45:03.490Z,27.40
2019-06-07T12:47:34.083Z,27.40
2019-06-07T12:50:05.362Z,27.40
2019-06-07T12:52:35.933Z,27.50
2019-06-07T12:55:08.634Z,27.50
2019-06-07T12:57:39.212Z,27.50
2019-06-07T13:00:11.360Z,27.50
2019-06-07T13:02:41.952Z,27.50
2019-06-07T13:05:13.224Z,27.50
2019-06-07T13:07:43.787Z,27.50
2019-06-07T13:10:15.644Z,27.50
2019-06-07T13:12:46.271Z,27.60
2019-06-07T13:15:19.721Z,27.60
2019-06-07T13:17:49.632Z,27.60
2019-06-07T13:20:20.575Z,27.60
2019-06-07T13:22:51.259Z,27.60
2019-06-07T13:25:25.419Z,27.60
2019-06-07T13:27:56.054Z,27.60
2019-06-07T13:30:27.030Z,27.60
2019-06-07T13:32:57.887Z,27.70
2019-06-07T13:35:29.648Z,27.70
2019-06-07T13:38:00.566Z,27.70
2019-06-07T13:40:31.148Z,27.70
2019-06-07T13:43:01.735Z,27.70
2019-06-07T13:45:32.271Z,27.70
2019-06-07T13:48:03.010Z,27.70
2019-06-07T13:50:33.632Z,27.70
2019-06-07T13:53:04.243Z,27.70
2019-06-07T13:55:34.789Z,27.70
2019-06-07T13:58:05.539Z,27.70
2019-06-07T14:00:36.165Z,27.70
2019-06-07T14:03:07.358Z,27.70
2019-06-07T14:05:37.923Z,27.80
2019-06-07T14:08:08.674Z,27.80
2019-06-07T14:10:39.322Z,27.80
2019-06-07T14:13:09.871Z,27.80
2019-06-07T14:15:40.506Z,27.80
2019-06-07T14:18:11.297Z,27.80
2019-06-07T14:20:42.032Z,27.80
2019-06-07T14:23:12.610Z,27.80
2019-06-07T14:25:43.351Z,27.80
2019-06-07T14:28:13.934Z,27.80
2019-06-07T14:30:44.582Z,27.90
2019-06-07T14:33:15.135Z,27.90
2019-06-07T14:35:45.717Z,27.90
2019-06-07T14:38:16.749Z,27.90
2019-06-07T14:40:47.308Z,28.00
2019-06-07T14:43:17.851Z,28.00
2019-06-07T14:45:48.544Z,28.00
2019-06-07T14:48:19.077Z,28.00
2019-06-07T14:50:49.643Z,28.00
2019-06-07T14:53:20.252Z,28.10
2019-06-07T14:55:50.969Z,28.10
2019-06-07T14:58:21.509Z,28.10
2019-06-07T15:00:52.314Z,28.10
2019-06-07T15:03:22.844Z,28.10
2019-06-07T15:05:54.631Z,28.10
2019-06-07T15:08:26.454Z,28.10
2019-06-07T15:10:57.246Z,28.20
2019-06-07T15:13:29.342Z,28.20
2019-06-07T15:16:00.169Z,28.30
2019-06-07T15:18:31.718Z,28.30
2019-06-07T15:21:02.496Z,28.30
2019-06-07T15:23:33.444Z,28.40
2019-06-07T15:26:04.307Z,28.40
2019-06-07T15:28:38.053Z,28.40
2019-06-07T15:31:08.653Z,28.50
2019-06-07T15:33:39.338Z,28.50
2019-06-07T15:36:10.106Z,28.60
2019-06-07T15:38:40.651Z,28.60
2019-06-07T15:41:11.201Z,28.60
2019-06-07T15:43:43.610Z,28.60
2019-06-07T15:46:14.317Z,28.60
2019-06-07T15:48:45.007Z,28.60
2019-06-07T15:51:15.754Z,28.70
2019-06-07T15:53:46.292Z,28.70
2019-06-07T15:56:16.894Z,28.70
2019-06-07T15:58:47.528Z,28.70
2019-06-07T16:01:18.101Z,28.70
2019-06-07T16:03:48.749Z,28.70
2019-06-07T16:06:19.801Z,28.70
2019-06-07T16:08:50.386Z,28.70
2019-06-07T16:11:20.976Z,28.70
2019-06-07T16:13:51.508Z,28.70
2019-06-07T16:16:22.123Z,28.70
2019-06-07T16:18:52.701Z,28.70
2019-06-07T16:21:24.365Z,28.70
2019-06-07T16:23:55.072Z,28.70
2019-06-07T16:26:25.640Z,28.80
2019-06-07T16:28:57.363Z,28.70
2019-06-07T16:31:28.097Z,28.70
2019-06-07T16:33:58.693Z,28.70
2019-06-07T16:36:29.298Z,28.70
2019-06-07T16:39:00.946Z,28.80
2019-06-07T16:41:31.544Z,28.80
2019-06-07T16:44:02.151Z,28.80
2019-06-07T16:46:32.925Z,28.80
2019-06-07T16:49:03.585Z,28.80
2019-06-07T16:51:34.245Z,28.80
2019-06-07T16:54:05.023Z,28.80
2019-06-07T16:56:37.516Z,28.70
2019-06-07T16:59:08.109Z,28.70
2019-06-07T17:01:39.225Z,28.70
2019-06-07T17:04:10.037Z,28.70
2019-06-07T17:06:41.675Z,28.70
2019-06-07T17:09:12.317Z,28.70
2019-06-07T17:11:44.245Z,28.70
2019-06-07T17:14:15.040Z,28.70
2019-06-07T17:16:47.947Z,28.70
2019-06-07T17:19:18.403Z,28.70
2019-06-07T17:21:50.248Z,28.70
2019-06-07T17:24:20.843Z,28.70
2019-06-07T17:26:51.411Z,28.70
2019-06-07T17:29:23.130Z,28.70
2019-06-07T17:31:53.847Z,28.70
2019-06-07T17:34:24.471Z,28.70
2019-06-07T17:36:55.226Z,28.70
2019-06-07T17:39:25.828Z,28.70
2019-06-07T17:42:02.052Z,28.70
2019-06-07T17:44:28.720Z,28.70
2019-06-07T17:46:59.318Z,28.70
2019-06-07T17:49:29.987Z,28.70
2019-06-07T17:52:00.469Z,28.70
2019-06-07T17:54:31.151Z,28.70
2019-06-07T17:59:42.419Z,28.70
2019-06-07T18:02:15.604Z,28.60
2019-06-07T18:04:47.168Z,28.60
2019-06-07T18:07:20.860Z,28.60
2019-06-07T18:09:53.674Z,28.50
2019-06-07T18:12:24.458Z,28.50
2019-06-07T18:14:56.100Z,28.50
2019-06-07T18:17:34.616Z,28.50
2019-06-07T18:20:03.378Z,28.50
2019-06-07T18:22:34.066Z,28.50
2019-06-07T18:25:05.692Z,28.50
2019-06-07T18:27:36.380Z,28.50
2019-06-07T18:30:11.786Z,28.60
2019-06-07T18:32:40.062Z,28.50
2019-06-07T18:35:10.721Z,28.60
2019-06-07T18:37:41.269Z,28.50
2019-06-07T18:40:12.761Z,28.50
2019-06-07T18:42:43.316Z,28.50
2019-06-07T18:45:13.954Z,28.50
2019-06-07T18:47:44.641Z,28.50
2019-06-07T18:50:15.365Z,28.40
2019-06-07T18:52:47.019Z,28.40
2019-06-07T18:55:18.523Z,28.40
2019-06-07T18:57:50.191Z,28.40
2019-06-07T19:00:23.241Z,28.30
2019-06-07T19:02:54.212Z,28.30
2019-06-07T19:05:25.342Z,28.30
2019-06-07T19:07:56.673Z,28.20
2019-06-07T19:10:27.907Z,28.20
2019-06-07T19:13:00.495Z,28.20
2019-06-07T19:15:31.356Z,28.10
2019-06-07T19:18:01.925Z,28.10
2019-06-07T19:20:32.470Z,28.10
2019-06-07T19:23:03.069Z,28.00
2019-06-07T19:25:35.111Z,28.00
2019-06-07T19:28:05.751Z,28.00
2019-06-07T19:30:36.461Z,28.00
2019-06-07T19:33:08.538Z,27.90
2019-06-07T19:35:39.223Z,27.90
2019-06-07T19:38:09.949Z,27.90
2019-06-07T19:40:40.544Z,27.90
2019-06-07T19:43:11.069Z,27.90
2019-06-07T19:45:41.746Z,27.90
2019-06-07T19:48:12.287Z,27.90
2019-06-07T19:50:43.032Z,27.90
2019-06-07T19:53:13.612Z,27.80
2019-06-07T19:55:45.389Z,27.80
2019-06-07T19:58:17.178Z,27.80
2019-06-07T20:00:48.302Z,27.80
2019-06-07T20:03:18.960Z,27.80
2019-06-07T20:05:49.674Z,27.80
2019-06-07T20:08:21.558Z,27.70
2019-06-07T20:10:52.349Z,27.70
2019-06-07T20:13:25.049Z,27.70
2019-06-07T20:15:56.855Z,27.70
2019-06-07T20:18:28.111Z,27.70
2019-06-07T20:20:58.810Z,27.70
2019-06-07T20:23:29.520Z,27.70
2019-06-07T20:26:00.227Z,27.60
2019-06-07T20:28:32.323Z,27.60
2019-06-07T20:31:03.880Z,27.60
2019-06-07T20:33:34.591Z,27.60
2019-06-07T20:36:05.338Z,27.50
2019-06-07T20:38:36.013Z,27.50
2019-06-07T20:41:07.469Z,27.50
2019-06-07T20:43:38.145Z,27.50
2019-06-07T20:46:08.792Z,27.50
2019-06-07T20:48:39.381Z,27.50
2019-06-07T20:51:09.998Z,27.40
2019-06-07T20:53:40.626Z,27.40
2019-06-07T20:56:11.183Z,27.40
2019-06-07T20:58:51.010Z,27.40
2019-06-07T21:01:21.612Z,27.30
2019-06-07T21:03:52.163Z,27.30
2019-06-07T21:06:22.762Z,27.30
2019-06-07T21:08:53.416Z,27.20
2019-06-07T21:11:24.117Z,27.20
2019-06-07T21:13:54.710Z,27.20
2019-06-07T21:16:25.320Z,27.20
2019-06-07T21:18:55.870Z,27.10
2019-06-07T21:21:27.962Z,27.10
2019-06-07T21:23:58.629Z,27.10
2019-06-07T21:26:29.314Z,27.00
2019-06-07T21:29:01.362Z,27.00
2019-06-07T21:31:32.285Z,27.00
2019-06-07T21:34:03.701Z,26.90
2019-06-07T21:36:35.227Z,26.90
2019-06-07T21:39:08.326Z,26.90
2019-06-07T21:41:39.070Z,26.90
2019-06-07T21:44:10.720Z,26.90
2019-06-07T21:46:41.287Z,26.80
2019-06-07T21:49:12.823Z,26.80
2019-06-07T21:51:43.476Z,26.80
2019-06-07T21:54:14.896Z,26.80
2019-06-07T21:56:47.397Z,26.80
2019-06-07T21:59:18.003Z,26.70
2019-06-07T22:01:48.726Z,26.70
2019-06-07T22:04:19.303Z,26.70
2019-06-07T22:06:49.938Z,26.70
2019-06-07T22:09:20.650Z,26.60
2019-06-07T22:11:52.447Z,26.60
2019-06-07T22:14:22.935Z,26.60
2019-06-07T22:16:54.847Z,26.50
2019-06-07T22:19:25.427Z,26.50
2019-06-07T22:22:02.706Z,26.50
2019-06-07T22:24:29.345Z,26.50
2019-06-07T22:26:59.914Z,26.40
2019-06-07T22:29:30.439Z,26.40
2019-06-07T22:32:01.028Z,26.40
2019-06-07T22:34:31.587Z,26.40
2019-06-07T22:37:02.161Z,26.30
2019-06-07T22:39:32.680Z,26.30
2019-06-07T22:42:03.248Z,26.30
2019-06-07T22:44:33.789Z,26.20
2019-06-07T22:47:04.480Z,26.20
2019-06-07T22:49:35.080Z,26.20
2019-06-07T22:52:09.290Z,26.20
2019-06-07T22:54:38.091Z,26.20
2019-06-07T22:57:16.523Z,26.20
2019-06-07T22:59:47.258Z,26.20
2019-06-07T23:02:18.932Z,26.20
2019-06-07T23:04:49.702Z,26.10
2019-06-07T23:07:20.286Z,26.10
2019-06-07T23:09:50.859Z,26.10
2019-06-07T23:12:21.441Z,26.10
2019-06-07T23:14:51.987Z,26.10
2019-06-07T23:17:22.567Z,26.10
2019-06-07T23:19:53.093Z,26.10
2019-06-07T23:22:23.691Z,26.10
2019-06-07T23:24:54.251Z,26.10
2019-06-07T23:27:24.824Z,26.10
2019-06-07T23:29:55.393Z,26.10
2019-06-07T23:32:25.989Z,26.10
2019-06-07T23:34:56.525Z,26.10
2019-06-07T23:37:29.231Z,26.10
2019-06-07T23:39:59.755Z,26.10
2019-06-07T23:42:30.307Z,26.10
2019-06-07T23:45:02.685Z,26.10
2019-06-07T23:47:33.214Z,26.10
2019-06-07T23:50:03.783Z,26.10
2019-06-07T23:52:34.345Z,26.10
2019-06-07T23:55:05.182Z,26.10
2019-06-07T23:57:35.807Z,26.10
